sensor_id;sensor_type;location;lat;lon;timestamp;P1;durP1;ratioP1;P2;durP2;ratioP2
54983;SDS011;40884;53.562;9.940;2022-10-16T00:00:54;7.53;;;6.70;;
54983;SDS011;40884;53.562;9.940;2022-10-16T00:01:55;9.03;;;7.03;;
54983;SDS011;40884;53.562;9.940;2022-10-16T00:02:55;8.10;;;7.30;;
54983;SDS011;40884;53.562;9.940;2022-10-16T00:03:55;10.00;;;7.00;;
54983;SDS011;40884;53.562;9.940;2022-10-16T00:04:56;7.07;;;6.37;;
54983;SDS011;40884;53.562;9.940;2022-10-16T00:05:58;7.67;;;6.53;;
54983;SDS011;40884;53.562;9.940;2022-10-16T00:06:59;7.67;;;6.50;;
54983;SDS011;40884;53.562;9.940;2022-10-16T00:07:59;7.23;;;6.10;;
54983;SDS011;40884;53.562;9.940;2022-10-16T00:08:59;9.30;;;6.47;;
54983;SDS011;40884;53.562;9.940;2022-10-16T00:09:59;7.37;;;5.83;;
54983;SDS011;40884;53.562;9.940;2022-10-16T00:11:00;8.60;;;5.90;;
54983;SDS011;40884;53.562;9.940;2022-10-16T00:12:01;7.13;;;5.67;;
54983;SDS011;40884;53.562;9.940;2022-10-16T00:13:01;7.80;;;5.60;;
54983;SDS011;40884;53.562;9.940;2022-10-16T00:14:01;6.33;;;5.00;;
54983;SDS011;40884;53.562;9.940;2022-10-16T00:15:02;7.67;;;5.60;;
54983;SDS011;40884;53.562;9.940;2022-10-16T00:16:02;6.37;;;5.60;;
54983;SDS011;40884;53.562;9.940;2022-10-16T00:17:03;6.53;;;5.77;;
54983;SDS011;40884;53.562;9.940;2022-10-16T00:18:03;7.00;;;5.10;;
54983;SDS011;40884;53.562;9.940;2022-10-16T00:19:04;6.10;;;4.87;;
54983;SDS011;40884;53.562;9.940;2022-10-16T00:20:04;7.07;;;5.30;;
54983;SDS011;40884;53.562;9.940;2022-10-16T00:21:06;5.87;;;5.00;;
54983;SDS011;40884;53.562;9.940;2022-10-16T00:22:06;5.80;;;4.53;;
54983;SDS011;40884;53.562;9.940;2022-10-16T00:23:06;5.97;;;4.60;;
54983;SDS011;40884;53.562;9.940;2022-10-16T00:24:07;8.50;;;4.13;;
54983;SDS011;40884;53.562;9.940;2022-10-16T00:25:07;6.83;;;3.90;;
54983;SDS011;40884;53.562;9.940;2022-10-16T00:26:09;5.40;;;3.60;;
54983;SDS011;40884;53.562;9.940;2022-10-16T00:27:09;4.63;;;3.83;;
54983;SDS011;40884;53.562;9.940;2022-10-16T00:28:10;6.53;;;3.87;;
54983;SDS011;40884;53.562;9.940;2022-10-16T00:29:10;6.27;;;3.73;;
54983;SDS011;40884;53.562;9.940;2022-10-16T00:30:10;6.83;;;3.93;;
54983;SDS011;40884;53.562;9.940;2022-10-16T00:31:10;4.97;;;4.20;;
54983;SDS011;40884;53.562;9.940;2022-10-16T00:32:11;9.97;;;4.03;;
54983;SDS011;40884;53.562;9.940;2022-10-16T00:33:11;6.60;;;3.50;;
54983;SDS011;40884;53.562;9.940;2022-10-16T00:34:11;4.97;;;3.50;;
54983;SDS011;40884;53.562;9.940;2022-10-16T00:35:11;5.57;;;3.63;;
54983;SDS011;40884;53.562;9.940;2022-10-16T00:36:12;4.90;;;3.20;;
54983;SDS011;40884;53.562;9.940;2022-10-16T00:37:13;4.77;;;3.20;;
54983;SDS011;40884;53.562;9.940;2022-10-16T00:38:13;5.07;;;3.30;;
54983;SDS011;40884;53.562;9.940;2022-10-16T00:39:13;4.87;;;3.33;;
54983;SDS011;40884;53.562;9.940;2022-10-16T00:40:13;3.83;;;3.07;;
54983;SDS011;40884;53.562;9.940;2022-10-16T00:41:15;5.20;;;3.40;;
54983;SDS011;40884;53.562;9.940;2022-10-16T00:42:16;3.67;;;2.70;;
54983;SDS011;40884;53.562;9.940;2022-10-16T00:44:43;5.90;;;3.27;;
54983;SDS011;40884;53.562;9.940;2022-10-16T00:45:43;5.70;;;2.93;;
54983;SDS011;40884;53.562;9.940;2022-10-16T00:46:43;3.50;;;2.73;;
54983;SDS011;40884;53.562;9.940;2022-10-16T00:47:43;3.20;;;2.60;;
54983;SDS011;40884;53.562;9.940;2022-10-16T00:48:46;5.97;;;2.80;;
54983;SDS011;40884;53.562;9.940;2022-10-16T00:49:48;3.50;;;2.53;;
54983;SDS011;40884;53.562;9.940;2022-10-16T00:50:49;5.13;;;3.13;;
54983;SDS011;40884;53.562;9.940;2022-10-16T00:51:50;6.30;;;2.90;;
54983;SDS011;40884;53.562;9.940;2022-10-16T00:52:51;3.80;;;2.47;;
54983;SDS011;40884;53.562;9.940;2022-10-16T00:53:52;4.57;;;2.63;;
54983;SDS011;40884;53.562;9.940;2022-10-16T00:54:52;4.80;;;2.50;;
54983;SDS011;40884;53.562;9.940;2022-10-16T00:55:53;3.87;;;2.70;;
54983;SDS011;40884;53.562;9.940;2022-10-16T00:56:53;3.00;;;2.63;;
54983;SDS011;40884;53.562;9.940;2022-10-16T00:57:54;6.57;;;2.50;;
54983;SDS011;40884;53.562;9.940;2022-10-16T00:58:54;3.53;;;2.47;;
54983;SDS011;40884;53.562;9.940;2022-10-16T00:59:54;5.40;;;2.30;;
54983;SDS011;40884;53.562;9.940;2022-10-16T01:00:55;4.77;;;2.20;;
54983;SDS011;40884;53.562;9.940;2022-10-16T01:01:55;11.60;;;3.17;;
54983;SDS011;40884;53.562;9.940;2022-10-16T01:02:56;4.37;;;2.33;;
54983;SDS011;40884;53.562;9.940;2022-10-16T01:03:57;3.40;;;2.20;;
54983;SDS011;40884;53.562;9.940;2022-10-16T01:04:57;5.43;;;3.07;;
54983;SDS011;40884;53.562;9.940;2022-10-16T01:08:22;3.30;;;2.03;;
54983;SDS011;40884;53.562;9.940;2022-10-16T01:10:45;6.07;;;2.40;;
54983;SDS011;40884;53.562;9.940;2022-10-16T01:12:05;4.70;;;2.40;;
54983;SDS011;40884;53.562;9.940;2022-10-16T01:13:10;4.53;;;2.17;;
54983;SDS011;40884;53.562;9.940;2022-10-16T01:14:13;5.10;;;2.30;;
54983;SDS011;40884;53.562;9.940;2022-10-16T01:15:17;5.50;;;2.20;;
54983;SDS011;40884;53.562;9.940;2022-10-16T01:16:28;4.17;;;2.20;;
54983;SDS011;40884;53.562;9.940;2022-10-16T01:18:31;2.30;;;1.93;;
54983;SDS011;40884;53.562;9.940;2022-10-16T01:21:52;4.83;;;1.90;;
54983;SDS011;40884;53.562;9.940;2022-10-16T01:23:07;6.43;;;2.00;;
54983;SDS011;40884;53.562;9.940;2022-10-16T01:24:24;2.97;;;1.87;;
54983;SDS011;40884;53.562;9.940;2022-10-16T01:27:01;4.00;;;1.77;;
54983;SDS011;40884;53.562;9.940;2022-10-16T01:28:02;4.20;;;2.07;;
54983;SDS011;40884;53.562;9.940;2022-10-16T01:30:04;3.93;;;1.70;;
54983;SDS011;40884;53.562;9.940;2022-10-16T01:31:07;3.50;;;2.30;;
54983;SDS011;40884;53.562;9.940;2022-10-16T01:32:31;3.70;;;2.00;;
54983;SDS011;40884;53.562;9.940;2022-10-16T01:33:31;4.83;;;2.23;;
54983;SDS011;40884;53.562;9.940;2022-10-16T01:34:37;3.93;;;1.87;;
54983;SDS011;40884;53.562;9.940;2022-10-16T01:35:39;2.93;;;1.73;;
54983;SDS011;40884;53.562;9.940;2022-10-16T01:36:43;5.47;;;1.70;;
54983;SDS011;40884;53.562;9.940;2022-10-16T01:39:03;2.87;;;1.80;;
54983;SDS011;40884;53.562;9.940;2022-10-16T01:40:07;5.37;;;1.83;;
54983;SDS011;40884;53.562;9.940;2022-10-16T01:41:22;4.20;;;2.20;;
54983;SDS011;40884;53.562;9.940;2022-10-16T01:42:25;3.93;;;1.50;;
54983;SDS011;40884;53.562;9.940;2022-10-16T01:43:28;5.00;;;2.10;;
54983;SDS011;40884;53.562;9.940;2022-10-16T01:44:31;2.73;;;1.90;;
54983;SDS011;40884;53.562;9.940;2022-10-16T01:45:32;4.80;;;1.93;;
54983;SDS011;40884;53.562;9.940;2022-10-16T01:46:33;3.23;;;1.90;;
54983;SDS011;40884;53.562;9.940;2022-10-16T01:47:34;3.07;;;1.77;;
54983;SDS011;40884;53.562;9.940;2022-10-16T01:48:35;3.07;;;1.70;;
54983;SDS011;40884;53.562;9.940;2022-10-16T01:49:36;3.47;;;1.93;;
54983;SDS011;40884;53.562;9.940;2022-10-16T01:50:38;3.77;;;1.60;;
54983;SDS011;40884;53.562;9.940;2022-10-16T01:51:39;6.43;;;2.67;;
54983;SDS011;40884;53.562;9.940;2022-10-16T01:52:41;3.70;;;1.90;;
54983;SDS011;40884;53.562;9.940;2022-10-16T01:53:44;4.23;;;2.07;;
54983;SDS011;40884;53.562;9.940;2022-10-16T01:54:46;3.63;;;1.83;;
54983;SDS011;40884;53.562;9.940;2022-10-16T01:55:47;4.20;;;2.03;;
54983;SDS011;40884;53.562;9.940;2022-10-16T01:56:49;2.90;;;1.73;;
54983;SDS011;40884;53.562;9.940;2022-10-16T01:57:50;5.73;;;2.00;;
54983;SDS011;40884;53.562;9.940;2022-10-16T01:58:53;4.37;;;2.20;;
54983;SDS011;40884;53.562;9.940;2022-10-16T01:59:55;3.57;;;2.10;;
54983;SDS011;40884;53.562;9.940;2022-10-16T02:00:56;4.93;;;2.00;;
54983;SDS011;40884;53.562;9.940;2022-10-16T02:01:58;5.40;;;2.47;;
54983;SDS011;40884;53.562;9.940;2022-10-16T02:03:00;6.90;;;2.33;;
54983;SDS011;40884;53.562;9.940;2022-10-16T02:04:07;5.20;;;2.03;;
54983;SDS011;40884;53.562;9.940;2022-10-16T02:05:16;6.53;;;2.50;;
54983;SDS011;40884;53.562;9.940;2022-10-16T02:06:18;5.63;;;2.30;;
54983;SDS011;40884;53.562;9.940;2022-10-16T02:07:18;3.63;;;2.23;;
54983;SDS011;40884;53.562;9.940;2022-10-16T02:08:19;4.83;;;1.93;;
54983;SDS011;40884;53.562;9.940;2022-10-16T02:09:19;4.13;;;2.00;;
54983;SDS011;40884;53.562;9.940;2022-10-16T02:10:19;4.67;;;2.17;;
54983;SDS011;40884;53.562;9.940;2022-10-16T02:11:20;3.87;;;1.83;;
54983;SDS011;40884;53.562;9.940;2022-10-16T02:13:22;4.40;;;2.40;;
54983;SDS011;40884;53.562;9.940;2022-10-16T02:14:23;5.27;;;2.27;;
54983;SDS011;40884;53.562;9.940;2022-10-16T02:15:23;5.33;;;2.17;;
54983;SDS011;40884;53.562;9.940;2022-10-16T02:16:32;2.87;;;2.03;;
54983;SDS011;40884;53.562;9.940;2022-10-16T02:17:32;3.30;;;2.00;;
54983;SDS011;40884;53.562;9.940;2022-10-16T02:18:32;4.17;;;2.10;;
54983;SDS011;40884;53.562;9.940;2022-10-16T02:19:32;5.80;;;2.07;;
54983;SDS011;40884;53.562;9.940;2022-10-16T02:20:34;5.23;;;2.17;;
54983;SDS011;40884;53.562;9.940;2022-10-16T02:21:42;7.40;;;2.37;;
54983;SDS011;40884;53.562;9.940;2022-10-16T02:22:43;3.23;;;1.80;;
54983;SDS011;40884;53.562;9.940;2022-10-16T02:23:47;3.93;;;2.00;;
54983;SDS011;40884;53.562;9.940;2022-10-16T02:25:52;3.63;;;1.97;;
54983;SDS011;40884;53.562;9.940;2022-10-16T02:27:03;3.13;;;1.80;;
54983;SDS011;40884;53.562;9.940;2022-10-16T02:28:06;4.33;;;2.00;;
54983;SDS011;40884;53.562;9.940;2022-10-16T02:29:08;4.30;;;1.90;;
54983;SDS011;40884;53.562;9.940;2022-10-16T02:30:19;4.40;;;1.60;;
54983;SDS011;40884;53.562;9.940;2022-10-16T02:31:22;3.77;;;2.10;;
54983;SDS011;40884;53.562;9.940;2022-10-16T02:32:26;3.97;;;1.70;;
54983;SDS011;40884;53.562;9.940;2022-10-16T02:33:28;3.20;;;1.67;;
54983;SDS011;40884;53.562;9.940;2022-10-16T02:34:29;5.80;;;2.17;;
54983;SDS011;40884;53.562;9.940;2022-10-16T02:35:31;5.87;;;2.00;;
54983;SDS011;40884;53.562;9.940;2022-10-16T02:36:32;4.50;;;2.10;;
54983;SDS011;40884;53.562;9.940;2022-10-16T02:37:32;3.90;;;1.60;;
54983;SDS011;40884;53.562;9.940;2022-10-16T02:38:33;4.23;;;1.70;;
54983;SDS011;40884;53.562;9.940;2022-10-16T02:39:33;2.73;;;1.60;;
54983;SDS011;40884;53.562;9.940;2022-10-16T02:40:34;3.93;;;1.40;;
54983;SDS011;40884;53.562;9.940;2022-10-16T02:41:34;5.40;;;1.70;;
54983;SDS011;40884;53.562;9.940;2022-10-16T02:42:35;2.73;;;1.53;;
54983;SDS011;40884;53.562;9.940;2022-10-16T02:43:36;6.07;;;1.57;;
54983;SDS011;40884;53.562;9.940;2022-10-16T02:44:36;6.03;;;1.70;;
54983;SDS011;40884;53.562;9.940;2022-10-16T02:45:36;5.30;;;1.80;;
54983;SDS011;40884;53.562;9.940;2022-10-16T02:46:36;4.90;;;1.40;;
54983;SDS011;40884;53.562;9.940;2022-10-16T02:47:37;4.90;;;1.57;;
54983;SDS011;40884;53.562;9.940;2022-10-16T02:48:37;3.47;;;1.60;;
54983;SDS011;40884;53.562;9.940;2022-10-16T02:49:37;3.10;;;1.40;;
54983;SDS011;40884;53.562;9.940;2022-10-16T02:50:37;3.30;;;1.50;;
54983;SDS011;40884;53.562;9.940;2022-10-16T02:51:37;3.20;;;1.70;;
54983;SDS011;40884;53.562;9.940;2022-10-16T02:52:37;3.73;;;1.43;;
54983;SDS011;40884;53.562;9.940;2022-10-16T02:53:38;1.97;;;1.27;;
54983;SDS011;40884;53.562;9.940;2022-10-16T02:54:38;3.97;;;1.63;;
54983;SDS011;40884;53.562;9.940;2022-10-16T02:55:38;1.97;;;1.40;;
54983;SDS011;40884;53.562;9.940;2022-10-16T02:56:38;5.43;;;1.70;;
54983;SDS011;40884;53.562;9.940;2022-10-16T02:57:38;3.90;;;1.43;;
54983;SDS011;40884;53.562;9.940;2022-10-16T02:58:38;4.33;;;1.70;;
54983;SDS011;40884;53.562;9.940;2022-10-16T02:59:38;2.97;;;1.77;;
54983;SDS011;40884;53.562;9.940;2022-10-16T03:00:39;3.17;;;1.40;;
54983;SDS011;40884;53.562;9.940;2022-10-16T03:01:39;3.53;;;1.80;;
54983;SDS011;40884;53.562;9.940;2022-10-16T03:02:39;4.50;;;1.57;;
54983;SDS011;40884;53.562;9.940;2022-10-16T03:03:40;4.23;;;1.60;;
54983;SDS011;40884;53.562;9.940;2022-10-16T03:04:40;4.13;;;1.87;;
54983;SDS011;40884;53.562;9.940;2022-10-16T03:05:40;3.50;;;1.80;;
54983;SDS011;40884;53.562;9.940;2022-10-16T03:06:40;4.93;;;1.87;;
54983;SDS011;40884;53.562;9.940;2022-10-16T03:07:40;4.40;;;1.90;;
54983;SDS011;40884;53.562;9.940;2022-10-16T03:08:40;4.37;;;1.83;;
54983;SDS011;40884;53.562;9.940;2022-10-16T03:09:40;4.00;;;1.50;;
54983;SDS011;40884;53.562;9.940;2022-10-16T03:10:40;3.43;;;1.43;;
54983;SDS011;40884;53.562;9.940;2022-10-16T03:11:40;2.57;;;1.50;;
54983;SDS011;40884;53.562;9.940;2022-10-16T03:12:41;5.03;;;2.00;;
54983;SDS011;40884;53.562;9.940;2022-10-16T03:13:41;4.33;;;1.70;;
54983;SDS011;40884;53.562;9.940;2022-10-16T03:14:41;2.80;;;1.73;;
54983;SDS011;40884;53.562;9.940;2022-10-16T03:15:41;6.20;;;2.00;;
54983;SDS011;40884;53.562;9.940;2022-10-16T03:16:41;3.37;;;2.00;;
54983;SDS011;40884;53.562;9.940;2022-10-16T03:17:41;4.23;;;2.60;;
54983;SDS011;40884;53.562;9.940;2022-10-16T03:18:41;5.47;;;1.97;;
54983;SDS011;40884;53.562;9.940;2022-10-16T03:19:41;4.43;;;1.70;;
54983;SDS011;40884;53.562;9.940;2022-10-16T03:20:44;4.30;;;1.80;;
54983;SDS011;40884;53.562;9.940;2022-10-16T03:21:45;4.30;;;1.90;;
54983;SDS011;40884;53.562;9.940;2022-10-16T03:22:45;6.07;;;2.40;;
54983;SDS011;40884;53.562;9.940;2022-10-16T03:23:45;5.10;;;2.43;;
54983;SDS011;40884;53.562;9.940;2022-10-16T03:24:45;4.83;;;2.03;;
54983;SDS011;40884;53.562;9.940;2022-10-16T03:25:45;4.20;;;2.00;;
54983;SDS011;40884;53.562;9.940;2022-10-16T03:26:45;6.30;;;2.20;;
54983;SDS011;40884;53.562;9.940;2022-10-16T03:27:45;4.77;;;2.10;;
54983;SDS011;40884;53.562;9.940;2022-10-16T03:28:45;6.07;;;2.10;;
54983;SDS011;40884;53.562;9.940;2022-10-16T03:29:46;6.13;;;2.37;;
54983;SDS011;40884;53.562;9.940;2022-10-16T03:30:46;4.47;;;2.27;;
54983;SDS011;40884;53.562;9.940;2022-10-16T03:31:46;3.33;;;1.97;;
54983;SDS011;40884;53.562;9.940;2022-10-16T03:32:46;6.07;;;2.10;;
54983;SDS011;40884;53.562;9.940;2022-10-16T03:33:46;4.07;;;2.37;;
54983;SDS011;40884;53.562;9.940;2022-10-16T03:34:46;6.03;;;1.77;;
54983;SDS011;40884;53.562;9.940;2022-10-16T03:35:53;4.80;;;2.23;;
54983;SDS011;40884;53.562;9.940;2022-10-16T03:36:53;6.03;;;2.23;;
54983;SDS011;40884;53.562;9.940;2022-10-16T03:37:53;4.60;;;2.10;;
54983;SDS011;40884;53.562;9.940;2022-10-16T03:38:53;3.53;;;1.70;;
54983;SDS011;40884;53.562;9.940;2022-10-16T03:39:53;3.17;;;1.90;;
54983;SDS011;40884;53.562;9.940;2022-10-16T03:40:53;4.13;;;1.87;;
54983;SDS011;40884;53.562;9.940;2022-10-16T03:41:53;3.80;;;2.03;;
54983;SDS011;40884;53.562;9.940;2022-10-16T03:42:54;5.13;;;2.17;;
54983;SDS011;40884;53.562;9.940;2022-10-16T03:43:54;4.63;;;2.03;;
54983;SDS011;40884;53.562;9.940;2022-10-16T03:44:54;4.20;;;1.97;;
54983;SDS011;40884;53.562;9.940;2022-10-16T03:45:54;4.40;;;2.03;;
54983;SDS011;40884;53.562;9.940;2022-10-16T03:46:54;4.33;;;1.80;;
54983;SDS011;40884;53.562;9.940;2022-10-16T03:47:54;2.20;;;1.73;;
54983;SDS011;40884;53.562;9.940;2022-10-16T03:48:54;4.20;;;1.70;;
54983;SDS011;40884;53.562;9.940;2022-10-16T03:49:54;6.10;;;2.17;;
54983;SDS011;40884;53.562;9.940;2022-10-16T03:50:54;3.13;;;1.53;;
54983;SDS011;40884;53.562;9.940;2022-10-16T03:51:55;4.57;;;2.00;;
54983;SDS011;40884;53.562;9.940;2022-10-16T03:52:55;6.30;;;2.27;;
54983;SDS011;40884;53.562;9.940;2022-10-16T03:53:55;2.67;;;1.80;;
54983;SDS011;40884;53.562;9.940;2022-10-16T03:54:55;4.37;;;1.97;;
54983;SDS011;40884;53.562;9.940;2022-10-16T03:55:55;3.90;;;1.93;;
54983;SDS011;40884;53.562;9.940;2022-10-16T03:56:55;4.90;;;2.27;;
54983;SDS011;40884;53.562;9.940;2022-10-16T03:57:56;4.63;;;2.17;;
54983;SDS011;40884;53.562;9.940;2022-10-16T03:58:56;4.87;;;2.00;;
54983;SDS011;40884;53.562;9.940;2022-10-16T03:59:56;4.07;;;2.10;;
54983;SDS011;40884;53.562;9.940;2022-10-16T04:00:56;4.30;;;1.90;;
54983;SDS011;40884;53.562;9.940;2022-10-16T04:01:56;3.93;;;1.97;;
54983;SDS011;40884;53.562;9.940;2022-10-16T04:02:56;3.20;;;1.70;;
54983;SDS011;40884;53.562;9.940;2022-10-16T04:03:56;5.93;;;2.00;;
54983;SDS011;40884;53.562;9.940;2022-10-16T04:04:56;4.63;;;1.70;;
54983;SDS011;40884;53.562;9.940;2022-10-16T04:05:56;5.30;;;2.00;;
54983;SDS011;40884;53.562;9.940;2022-10-16T04:06:57;2.97;;;1.73;;
54983;SDS011;40884;53.562;9.940;2022-10-16T04:07:57;4.20;;;2.10;;
54983;SDS011;40884;53.562;9.940;2022-10-16T04:08:57;3.20;;;1.53;;
54983;SDS011;40884;53.562;9.940;2022-10-16T04:09:57;3.80;;;1.90;;
54983;SDS011;40884;53.562;9.940;2022-10-16T04:10:57;4.07;;;1.90;;
54983;SDS011;40884;53.562;9.940;2022-10-16T04:11:57;4.07;;;1.90;;
54983;SDS011;40884;53.562;9.940;2022-10-16T04:12:57;3.37;;;1.90;;
54983;SDS011;40884;53.562;9.940;2022-10-16T04:13:57;6.13;;;2.13;;
54983;SDS011;40884;53.562;9.940;2022-10-16T04:14:58;4.23;;;1.90;;
54983;SDS011;40884;53.562;9.940;2022-10-16T04:15:58;5.70;;;2.03;;
54983;SDS011;40884;53.562;9.940;2022-10-16T04:16:58;4.60;;;2.20;;
54983;SDS011;40884;53.562;9.940;2022-10-16T04:17:58;3.37;;;1.90;;
54983;SDS011;40884;53.562;9.940;2022-10-16T04:18:58;5.47;;;2.20;;
54983;SDS011;40884;53.562;9.940;2022-10-16T04:19:58;5.67;;;2.10;;
54983;SDS011;40884;53.562;9.940;2022-10-16T04:21:04;4.40;;;1.80;;
54983;SDS011;40884;53.562;9.940;2022-10-16T04:22:05;3.20;;;1.80;;
54983;SDS011;40884;53.562;9.940;2022-10-16T04:23:05;5.80;;;1.97;;
54983;SDS011;40884;53.562;9.940;2022-10-16T04:24:05;3.97;;;1.80;;
54983;SDS011;40884;53.562;9.940;2022-10-16T04:25:05;4.23;;;2.20;;
54983;SDS011;40884;53.562;9.940;2022-10-16T04:26:06;3.40;;;1.80;;
54983;SDS011;40884;53.562;9.940;2022-10-16T04:27:06;3.67;;;1.80;;
54983;SDS011;40884;53.562;9.940;2022-10-16T04:28:06;3.40;;;1.73;;
54983;SDS011;40884;53.562;9.940;2022-10-16T04:29:06;3.07;;;1.63;;
54983;SDS011;40884;53.562;9.940;2022-10-16T04:30:06;4.57;;;1.80;;
54983;SDS011;40884;53.562;9.940;2022-10-16T04:31:07;5.20;;;2.00;;
54983;SDS011;40884;53.562;9.940;2022-10-16T04:32:08;4.80;;;2.13;;
54983;SDS011;40884;53.562;9.940;2022-10-16T04:33:09;3.80;;;1.70;;
54983;SDS011;40884;53.562;9.940;2022-10-16T04:34:09;4.43;;;1.90;;
54983;SDS011;40884;53.562;9.940;2022-10-16T04:35:09;5.47;;;2.20;;
54983;SDS011;40884;53.562;9.940;2022-10-16T04:36:09;5.20;;;2.07;;
54983;SDS011;40884;53.562;9.940;2022-10-16T04:37:09;4.43;;;2.10;;
54983;SDS011;40884;53.562;9.940;2022-10-16T04:38:09;5.20;;;2.03;;
54983;SDS011;40884;53.562;9.940;2022-10-16T04:39:09;3.87;;;2.40;;
54983;SDS011;40884;53.562;9.940;2022-10-16T04:40:09;4.83;;;2.37;;
54983;SDS011;40884;53.562;9.940;2022-10-16T04:41:10;4.30;;;2.20;;
54983;SDS011;40884;53.562;9.940;2022-10-16T04:42:10;4.50;;;2.63;;
54983;SDS011;40884;53.562;9.940;2022-10-16T04:43:10;5.57;;;2.63;;
54983;SDS011;40884;53.562;9.940;2022-10-16T04:44:10;5.87;;;2.70;;
54983;SDS011;40884;53.562;9.940;2022-10-16T04:45:10;3.90;;;2.40;;
54983;SDS011;40884;53.562;9.940;2022-10-16T04:46:10;5.77;;;2.60;;
54983;SDS011;40884;53.562;9.940;2022-10-16T04:47:10;5.13;;;2.47;;
54983;SDS011;40884;53.562;9.940;2022-10-16T04:48:11;5.07;;;2.57;;
54983;SDS011;40884;53.562;9.940;2022-10-16T04:49:11;4.53;;;2.40;;
54983;SDS011;40884;53.562;9.940;2022-10-16T04:50:11;5.00;;;2.60;;
54983;SDS011;40884;53.562;9.940;2022-10-16T04:51:11;5.60;;;2.60;;
54983;SDS011;40884;53.562;9.940;2022-10-16T04:52:11;5.47;;;2.50;;
54983;SDS011;40884;53.562;9.940;2022-10-16T04:53:11;3.53;;;2.40;;
54983;SDS011;40884;53.562;9.940;2022-10-16T04:54:11;7.63;;;3.20;;
54983;SDS011;40884;53.562;9.940;2022-10-16T04:55:12;7.43;;;2.80;;
54983;SDS011;40884;53.562;9.940;2022-10-16T04:56:12;6.80;;;3.30;;
54983;SDS011;40884;53.562;9.940;2022-10-16T04:57:12;6.40;;;3.00;;
54983;SDS011;40884;53.562;9.940;2022-10-16T04:58:12;6.00;;;3.03;;
54983;SDS011;40884;53.562;9.940;2022-10-16T04:59:15;4.37;;;2.87;;
54983;SDS011;40884;53.562;9.940;2022-10-16T05:00:15;5.17;;;2.67;;
54983;SDS011;40884;53.562;9.940;2022-10-16T05:01:15;5.17;;;3.13;;
54983;SDS011;40884;53.562;9.940;2022-10-16T05:02:16;6.03;;;3.10;;
54983;SDS011;40884;53.562;9.940;2022-10-16T05:03:16;4.97;;;3.07;;
54983;SDS011;40884;53.562;9.940;2022-10-16T05:04:16;6.40;;;3.40;;
54983;SDS011;40884;53.562;9.940;2022-10-16T05:05:16;4.57;;;3.00;;
54983;SDS011;40884;53.562;9.940;2022-10-16T05:06:16;5.50;;;3.17;;
54983;SDS011;40884;53.562;9.940;2022-10-16T05:07:16;9.57;;;3.17;;
54983;SDS011;40884;53.562;9.940;2022-10-16T05:08:17;6.27;;;2.90;;
54983;SDS011;40884;53.562;9.940;2022-10-16T05:09:17;8.27;;;3.23;;
54983;SDS011;40884;53.562;9.940;2022-10-16T05:10:17;6.60;;;3.37;;
54983;SDS011;40884;53.562;9.940;2022-10-16T05:11:17;7.23;;;3.10;;
54983;SDS011;40884;53.562;9.940;2022-10-16T05:12:17;7.17;;;3.20;;
54983;SDS011;40884;53.562;9.940;2022-10-16T05:13:17;3.90;;;3.00;;
54983;SDS011;40884;53.562;9.940;2022-10-16T05:14:17;4.97;;;3.00;;
54983;SDS011;40884;53.562;9.940;2022-10-16T05:15:18;6.10;;;3.23;;
54983;SDS011;40884;53.562;9.940;2022-10-16T05:16:18;5.07;;;3.33;;
54983;SDS011;40884;53.562;9.940;2022-10-16T05:17:18;6.73;;;3.00;;
54983;SDS011;40884;53.562;9.940;2022-10-16T05:18:18;3.93;;;2.97;;
54983;SDS011;40884;53.562;9.940;2022-10-16T05:19:18;4.53;;;3.10;;
54983;SDS011;40884;53.562;9.940;2022-10-16T05:20:18;4.67;;;3.00;;
54983;SDS011;40884;53.562;9.940;2022-10-16T05:21:18;7.73;;;3.60;;
54983;SDS011;40884;53.562;9.940;2022-10-16T05:22:19;6.13;;;3.37;;
54983;SDS011;40884;53.562;9.940;2022-10-16T05:23:19;5.63;;;3.33;;
54983;SDS011;40884;53.562;9.940;2022-10-16T05:24:19;5.87;;;3.87;;
54983;SDS011;40884;53.562;9.940;2022-10-16T05:25:19;6.20;;;3.30;;
54983;SDS011;40884;53.562;9.940;2022-10-16T05:26:19;6.30;;;3.47;;
54983;SDS011;40884;53.562;9.940;2022-10-16T05:27:19;9.77;;;4.03;;
54983;SDS011;40884;53.562;9.940;2022-10-16T05:28:20;5.80;;;3.37;;
54983;SDS011;40884;53.562;9.940;2022-10-16T05:29:20;6.03;;;3.27;;
54983;SDS011;40884;53.562;9.940;2022-10-16T05:30:20;4.47;;;3.20;;
54983;SDS011;40884;53.562;9.940;2022-10-16T05:31:20;5.10;;;3.13;;
54983;SDS011;40884;53.562;9.940;2022-10-16T05:32:20;5.90;;;2.90;;
54983;SDS011;40884;53.562;9.940;2022-10-16T05:33:21;5.47;;;3.27;;
54983;SDS011;40884;53.562;9.940;2022-10-16T05:34:21;6.80;;;3.53;;
54983;SDS011;40884;53.562;9.940;2022-10-16T05:35:21;6.40;;;3.50;;
54983;SDS011;40884;53.562;9.940;2022-10-16T05:36:21;7.67;;;3.10;;
54983;SDS011;40884;53.562;9.940;2022-10-16T05:37:21;7.93;;;3.77;;
54983;SDS011;40884;53.562;9.940;2022-10-16T05:38:21;7.97;;;3.70;;
54983;SDS011;40884;53.562;9.940;2022-10-16T05:39:22;5.80;;;3.23;;
54983;SDS011;40884;53.562;9.940;2022-10-16T05:40:23;7.40;;;3.60;;
54983;SDS011;40884;53.562;9.940;2022-10-16T05:41:23;5.50;;;3.13;;
54983;SDS011;40884;53.562;9.940;2022-10-16T05:42:23;5.77;;;3.00;;
54983;SDS011;40884;53.562;9.940;2022-10-16T05:43:23;5.67;;;3.30;;
54983;SDS011;40884;53.562;9.940;2022-10-16T05:44:23;4.57;;;3.23;;
54983;SDS011;40884;53.562;9.940;2022-10-16T05:45:23;8.00;;;3.10;;
54983;SDS011;40884;53.562;9.940;2022-10-16T05:46:23;5.40;;;3.30;;
54983;SDS011;40884;53.562;9.940;2022-10-16T05:47:23;4.93;;;3.00;;
54983;SDS011;40884;53.562;9.940;2022-10-16T05:48:24;7.47;;;3.50;;
54983;SDS011;40884;53.562;9.940;2022-10-16T05:49:24;5.30;;;2.53;;
54983;SDS011;40884;53.562;9.940;2022-10-16T05:50:24;5.50;;;2.80;;
54983;SDS011;40884;53.562;9.940;2022-10-16T05:51:24;8.53;;;3.13;;
54983;SDS011;40884;53.562;9.940;2022-10-16T05:52:24;7.70;;;2.53;;
54983;SDS011;40884;53.562;9.940;2022-10-16T05:53:27;4.43;;;2.93;;
54983;SDS011;40884;53.562;9.940;2022-10-16T05:54:27;9.40;;;3.47;;
54983;SDS011;40884;53.562;9.940;2022-10-16T05:55:27;4.10;;;2.43;;
54983;SDS011;40884;53.562;9.940;2022-10-16T05:56:27;5.97;;;2.63;;
54983;SDS011;40884;53.562;9.940;2022-10-16T05:57:27;4.83;;;2.43;;
54983;SDS011;40884;53.562;9.940;2022-10-16T05:58:28;5.27;;;2.80;;
54983;SDS011;40884;53.562;9.940;2022-10-16T05:59:28;4.07;;;2.13;;
54983;SDS011;40884;53.562;9.940;2022-10-16T06:00:28;5.53;;;2.70;;
54983;SDS011;40884;53.562;9.940;2022-10-16T06:01:28;4.97;;;2.33;;
54983;SDS011;40884;53.562;9.940;2022-10-16T06:02:29;4.73;;;2.33;;
54983;SDS011;40884;53.562;9.940;2022-10-16T06:03:29;4.50;;;2.33;;
54983;SDS011;40884;53.562;9.940;2022-10-16T06:04:29;5.67;;;2.63;;
54983;SDS011;40884;53.562;9.940;2022-10-16T06:05:29;7.00;;;2.73;;
54983;SDS011;40884;53.562;9.940;2022-10-16T06:06:29;6.87;;;2.97;;
54983;SDS011;40884;53.562;9.940;2022-10-16T06:07:33;5.43;;;2.30;;
54983;SDS011;40884;53.562;9.940;2022-10-16T06:08:33;7.80;;;2.40;;
54983;SDS011;40884;53.562;9.940;2022-10-16T06:09:33;3.73;;;2.40;;
54983;SDS011;40884;53.562;9.940;2022-10-16T06:10:34;5.03;;;2.37;;
54983;SDS011;40884;53.562;9.940;2022-10-16T06:11:34;5.53;;;2.60;;
54983;SDS011;40884;53.562;9.940;2022-10-16T06:12:34;6.33;;;2.40;;
54983;SDS011;40884;53.562;9.940;2022-10-16T06:13:34;5.23;;;2.23;;
54983;SDS011;40884;53.562;9.940;2022-10-16T06:14:35;5.07;;;2.40;;
54983;SDS011;40884;53.562;9.940;2022-10-16T06:15:35;4.73;;;2.50;;
54983;SDS011;40884;53.562;9.940;2022-10-16T06:16:36;4.97;;;2.60;;
54983;SDS011;40884;53.562;9.940;2022-10-16T06:17:36;4.13;;;2.40;;
54983;SDS011;40884;53.562;9.940;2022-10-16T06:18:36;5.60;;;2.50;;
54983;SDS011;40884;53.562;9.940;2022-10-16T06:19:36;3.60;;;2.40;;
54983;SDS011;40884;53.562;9.940;2022-10-16T06:20:37;4.80;;;2.27;;
54983;SDS011;40884;53.562;9.940;2022-10-16T06:21:37;5.63;;;2.40;;
54983;SDS011;40884;53.562;9.940;2022-10-16T06:22:37;4.73;;;2.37;;